sensor_id;sensor_type;location;lat;lon;timestamp;P1;durP1;ratioP1;P2;durP2;ratioP2
61527;SDS011;47395;42.032;-8.634;2023-02-28T00:00:11;1215.60;;;999.90;;
61527;SDS011;47395;42.032;-8.634;2023-02-28T00:02:13;1220.95;;;999.90;;
61527;SDS011;47395;42.032;-8.634;2023-02-28T00:04:14;1199.03;;;999.90;;
61527;SDS011;47395;42.032;-8.634;2023-02-28T00:06:15;1205.78;;;999.90;;
61527;SDS011;47395;42.032;-8.634;2023-02-28T00:08:16;1220.90;;;999.90;;
61527;SDS011;47395;42.032;-8.634;2023-02-28T00:10:27;1230.05;;;999.90;;
61527;SDS011;47395;42.032;-8.634;2023-02-28T00:12:31;1217.95;;;999.90;;
61527;SDS011;47395;42.032;-8.634;2023-02-28T00:14:31;1251.03;;;999.90;;
61527;SDS011;47395;42.032;-8.634;2023-02-28T00:16:32;1236.18;;;999.90;;
61527;SDS011;47395;42.032;-8.634;2023-02-28T00:20:34;1200.28;;;999.90;;
61527;SDS011;47395;42.032;-8.634;2023-02-28T00:22:35;1227.88;;;999.90;;
61527;SDS011;47395;42.032;-8.634;2023-02-28T00:24:36;1259.35;;;999.90;;
61527;SDS011;47395;42.032;-8.634;2023-02-28T00:26:37;1248.53;;;999.90;;
61527;SDS011;47395;42.032;-8.634;2023-02-28T00:28:38;1254.30;;;999.90;;
61527;SDS011;47395;42.032;-8.634;2023-02-28T00:30:39;1206.97;;;999.90;;
61527;SDS011;47395;42.032;-8.634;2023-02-28T00:32:40;1211.25;;;999.90;;
61527;SDS011;47395;42.032;-8.634;2023-02-28T00:34:41;1260.70;;;999.90;;
61527;SDS011;47395;42.032;-8.634;2023-02-28T00:36:42;1344.25;;;999.90;;
61527;SDS011;47395;42.032;-8.634;2023-02-28T00:38:45;1225.95;;;999.90;;
61527;SDS011;47395;42.032;-8.634;2023-02-28T00:40:46;1247.55;;;999.90;;
61527;SDS011;47395;42.032;-8.634;2023-02-28T00:42:47;1248.47;;;999.90;;
61527;SDS011;47395;42.032;-8.634;2023-02-28T00:44:48;1304.95;;;999.90;;
61527;SDS011;47395;42.032;-8.634;2023-02-28T00:46:49;1259.68;;;999.90;;
61527;SDS011;47395;42.032;-8.634;2023-02-28T00:50:50;1195.25;;;999.90;;
61527;SDS011;47395;42.032;-8.634;2023-02-28T00:52:51;1237.47;;;999.90;;
61527;SDS011;47395;42.032;-8.634;2023-02-28T00:56:52;1168.18;;;999.90;;
61527;SDS011;47395;42.032;-8.634;2023-02-28T00:58:53;1228.03;;;999.90;;
61527;SDS011;47395;42.032;-8.634;2023-02-28T01:02:55;1178.85;;;999.90;;
61527;SDS011;47395;42.032;-8.634;2023-02-28T01:04:56;1207.80;;;999.90;;
61527;SDS011;47395;42.032;-8.634;2023-02-28T01:06:57;1218.22;;;999.90;;
61527;SDS011;47395;42.032;-8.634;2023-02-28T01:08:58;1241.07;;;999.90;;
61527;SDS011;47395;42.032;-8.634;2023-02-28T01:11:06;1226.07;;;999.90;;
61527;SDS011;47395;42.032;-8.634;2023-02-28T01:13:14;1215.72;;;999.90;;
61527;SDS011;47395;42.032;-8.634;2023-02-28T01:15:15;1208.30;;;999.90;;
61527;SDS011;47395;42.032;-8.634;2023-02-28T01:17:16;1245.57;;;999.90;;
61527;SDS011;47395;42.032;-8.634;2023-02-28T01:19:17;1206.75;;;999.90;;
61527;SDS011;47395;42.032;-8.634;2023-02-28T01:21:18;1285.50;;;999.90;;
61527;SDS011;47395;42.032;-8.634;2023-02-28T01:23:21;1234.38;;;999.90;;
61527;SDS011;47395;42.032;-8.634;2023-02-28T01:25:23;1226.97;;;999.90;;
61527;SDS011;47395;42.032;-8.634;2023-02-28T01:27:24;1270.15;;;999.90;;
61527;SDS011;47395;42.032;-8.634;2023-02-28T01:29:26;1250.53;;;999.90;;
61527;SDS011;47395;42.032;-8.634;2023-02-28T01:33:29;1126.30;;;999.90;;
61527;SDS011;47395;42.032;-8.634;2023-02-28T01:37:34;1151.70;;;999.90;;
61527;SDS011;47395;42.032;-8.634;2023-02-28T01:41:37;1135.70;;;999.90;;
61527;SDS011;47395;42.032;-8.634;2023-02-28T01:46:04;1176.32;;;999.90;;
61527;SDS011;47395;42.032;-8.634;2023-02-28T01:50:09;1145.15;;;999.90;;
61527;SDS011;47395;42.032;-8.634;2023-02-28T01:52:14;1159.28;;;999.90;;
61527;SDS011;47395;42.032;-8.634;2023-02-28T01:54:20;1201.72;;;999.90;;
61527;SDS011;47395;42.032;-8.634;2023-02-28T01:56:29;1185.97;;;999.90;;
61527;SDS011;47395;42.032;-8.634;2023-02-28T01:58:33;1193.80;;;999.90;;
61527;SDS011;47395;42.032;-8.634;2023-02-28T02:00:36;1250.15;;;999.90;;
61527;SDS011;47395;42.032;-8.634;2023-02-28T02:02:39;1246.57;;;999.90;;
61527;SDS011;47395;42.032;-8.634;2023-02-28T02:04:58;1260.65;;;999.90;;
61527;SDS011;47395;42.032;-8.634;2023-02-28T02:07:07;1223.07;;;999.90;;
61527;SDS011;47395;42.032;-8.634;2023-02-28T02:09:09;1232.32;;;999.90;;
61527;SDS011;47395;42.032;-8.634;2023-02-28T02:11:11;1234.20;;;999.90;;
61527;SDS011;47395;42.032;-8.634;2023-02-28T02:15:48;1185.53;;;999.90;;
61527;SDS011;47395;42.032;-8.634;2023-02-28T02:18:09;1243.35;;;999.90;;
61527;SDS011;47395;42.032;-8.634;2023-02-28T02:25:26;1212.22;;;999.90;;
61527;SDS011;47395;42.032;-8.634;2023-02-28T02:32:45;1194.03;;;999.90;;
61527;SDS011;47395;42.032;-8.634;2023-02-28T02:35:14;1205.70;;;999.90;;
61527;SDS011;47395;42.032;-8.634;2023-02-28T02:42:14;1207.57;;;999.90;;
61527;SDS011;47395;42.032;-8.634;2023-02-28T02:44:21;1202.75;;;999.90;;
61527;SDS011;47395;42.032;-8.634;2023-02-28T02:47:03;1240.32;;;999.90;;
61527;SDS011;47395;42.032;-8.634;2023-02-28T02:49:18;1214.50;;;999.90;;
61527;SDS011;47395;42.032;-8.634;2023-02-28T02:51:23;1202.35;;;999.90;;
61527;SDS011;47395;42.032;-8.634;2023-02-28T02:53:32;1183.88;;;999.90;;
61527;SDS011;47395;42.032;-8.634;2023-02-28T02:55:38;1171.60;;;999.90;;
61527;SDS011;47395;42.032;-8.634;2023-02-28T02:58:15;1226.55;;;999.90;;
61527;SDS011;47395;42.032;-8.634;2023-02-28T03:00:14;1186.78;;;999.90;;
61527;SDS011;47395;42.032;-8.634;2023-02-28T03:02:20;1183.82;;;999.90;;
61527;SDS011;47395;42.032;-8.634;2023-02-28T03:04:23;1211.75;;;999.90;;
61527;SDS011;47395;42.032;-8.634;2023-02-28T03:06:27;1235.10;;;999.90;;
61527;SDS011;47395;42.032;-8.634;2023-02-28T03:10:35;1110.53;;;999.85;;
61527;SDS011;47395;42.032;-8.634;2023-02-28T03:12:45;1172.60;;;999.90;;
61527;SDS011;47395;42.032;-8.634;2023-02-28T03:15:06;1203.13;;;999.90;;
61527;SDS011;47395;42.032;-8.634;2023-02-28T03:33:43;1192.95;;;999.90;;
61527;SDS011;47395;42.032;-8.634;2023-02-28T03:35:47;1218.82;;;999.90;;
61527;SDS011;47395;42.032;-8.634;2023-02-28T03:37:56;1248.60;;;999.90;;
61527;SDS011;47395;42.032;-8.634;2023-02-28T03:40:11;1220.47;;;999.90;;
61527;SDS011;47395;42.032;-8.634;2023-02-28T03:42:19;1222.00;;;999.90;;
61527;SDS011;47395;42.032;-8.634;2023-02-28T03:44:40;1217.45;;;999.90;;
61527;SDS011;47395;42.032;-8.634;2023-02-28T03:47:03;1196.22;;;999.90;;
61527;SDS011;47395;42.032;-8.634;2023-02-28T03:49:34;1209.97;;;999.90;;
61527;SDS011;47395;42.032;-8.634;2023-02-28T03:51:43;1204.20;;;999.90;;
61527;SDS011;47395;42.032;-8.634;2023-02-28T03:53:53;1194.57;;;999.90;;
61527;SDS011;47395;42.032;-8.634;2023-02-28T03:56:06;1215.50;;;999.90;;
61527;SDS011;47395;42.032;-8.634;2023-02-28T03:58:20;1265.28;;;999.90;;
61527;SDS011;47395;42.032;-8.634;2023-02-28T04:00:39;1230.95;;;999.90;;
61527;SDS011;47395;42.032;-8.634;2023-02-28T04:02:45;1232.88;;;999.90;;
61527;SDS011;47395;42.032;-8.634;2023-02-28T04:04:46;1178.85;;;999.90;;
61527;SDS011;47395;42.032;-8.634;2023-02-28T04:06:49;1196.60;;;999.90;;
61527;SDS011;47395;42.032;-8.634;2023-02-28T04:08:51;1212.57;;;999.90;;
61527;SDS011;47395;42.032;-8.634;2023-02-28T04:10:56;1223.63;;;999.90;;
61527;SDS011;47395;42.032;-8.634;2023-02-28T04:13:02;1243.32;;;999.90;;
61527;SDS011;47395;42.032;-8.634;2023-02-28T04:15:03;1238.70;;;999.90;;
61527;SDS011;47395;42.032;-8.634;2023-02-28T04:17:05;1164.95;;;999.90;;
61527;SDS011;47395;42.032;-8.634;2023-02-28T04:21:07;1131.38;;;999.90;;
61527;SDS011;47395;42.032;-8.634;2023-02-28T04:25:09;1123.50;;;999.90;;
61527;SDS011;47395;42.032;-8.634;2023-02-28T04:29:11;1110.30;;;999.90;;
61527;SDS011;47395;42.032;-8.634;2023-02-28T04:31:13;1151.10;;;999.90;;
61527;SDS011;47395;42.032;-8.634;2023-02-28T04:35:15;1102.78;;;998.10;;
61527;SDS011;47395;42.032;-8.634;2023-02-28T04:37:16;1195.47;;;999.90;;
61527;SDS011;47395;42.032;-8.634;2023-02-28T04:41:18;1076.68;;;981.50;;
61527;SDS011;47395;42.032;-8.634;2023-02-28T04:43:19;1186.55;;;999.90;;
61527;SDS011;47395;42.032;-8.634;2023-02-28T04:47:21;1138.65;;;999.90;;
61527;SDS011;47395;42.032;-8.634;2023-02-28T04:51:22;1113.57;;;999.90;;
61527;SDS011;47395;42.032;-8.634;2023-02-28T04:55:24;1065.70;;;978.90;;
61527;SDS011;47395;42.032;-8.634;2023-02-28T04:59:26;1106.13;;;999.90;;
61527;SDS011;47395;42.032;-8.634;2023-02-28T05:06:07;1121.85;;;999.90;;
61527;SDS011;47395;42.032;-8.634;2023-02-28T05:08:08;1172.05;;;999.90;;
61527;SDS011;47395;42.032;-8.634;2023-02-28T05:10:10;1169.70;;;999.90;;
61527;SDS011;47395;42.032;-8.634;2023-02-28T05:12:11;1208.65;;;999.90;;
61527;SDS011;47395;42.032;-8.634;2023-02-28T05:16:14;1134.05;;;999.90;;
61527;SDS011;47395;42.032;-8.634;2023-02-28T05:18:15;1179.07;;;999.90;;
61527;SDS011;47395;42.032;-8.634;2023-02-28T05:22:17;1122.65;;;999.90;;
61527;SDS011;47395;42.032;-8.634;2023-02-28T05:24:18;1171.90;;;999.90;;
61527;SDS011;47395;42.032;-8.634;2023-02-28T05:26:22;1216.18;;;999.90;;
61527;SDS011;47395;42.032;-8.634;2023-02-28T05:28:23;1156.90;;;999.90;;
61527;SDS011;47395;42.032;-8.634;2023-02-28T05:32:25;1143.38;;;999.90;;
61527;SDS011;47395;42.032;-8.634;2023-02-28T05:36:26;1169.40;;;999.90;;
61527;SDS011;47395;42.032;-8.634;2023-02-28T05:38:27;1168.55;;;999.90;;
61527;SDS011;47395;42.032;-8.634;2023-02-28T05:42:29;1123.05;;;999.90;;
61527;SDS011;47395;42.032;-8.634;2023-02-28T05:46:30;1112.93;;;999.90;;
61527;SDS011;47395;42.032;-8.634;2023-02-28T05:52:33;1090.70;;;999.53;;
61527;SDS011;47395;42.032;-8.634;2023-02-28T05:54:34;1155.68;;;999.90;;
61527;SDS011;47395;42.032;-8.634;2023-02-28T05:58:37;1128.82;;;999.90;;
61527;SDS011;47395;42.032;-8.634;2023-02-28T06:02:39;1117.70;;;999.90;;
61527;SDS011;47395;42.032;-8.634;2023-02-28T06:04:40;1149.57;;;999.90;;
61527;SDS011;47395;42.032;-8.634;2023-02-28T06:06:42;1193.32;;;999.90;;
61527;SDS011;47395;42.032;-8.634;2023-02-28T06:08:50;1203.78;;;999.90;;
61527;SDS011;47395;42.032;-8.634;2023-02-28T06:12:51;1115.57;;;999.90;;
61527;SDS011;47395;42.032;-8.634;2023-02-28T06:16:52;1102.00;;;999.90;;
61527;SDS011;47395;42.032;-8.634;2023-02-28T06:20:56;1096.32;;;997.92;;
61527;SDS011;47395;42.032;-8.634;2023-02-28T06:25:01;1033.05;;;949.30;;
61527;SDS011;47395;42.032;-8.634;2023-02-28T06:27:02;1137.78;;;999.90;;
61527;SDS011;47395;42.032;-8.634;2023-02-28T06:29:06;1183.53;;;999.90;;
61527;SDS011;47395;42.032;-8.634;2023-02-28T06:31:08;1149.32;;;999.90;;
61527;SDS011;47395;42.032;-8.634;2023-02-28T06:33:10;1157.75;;;999.90;;
61527;SDS011;47395;42.032;-8.634;2023-02-28T06:37:12;1091.13;;;995.03;;
61527;SDS011;47395;42.032;-8.634;2023-02-28T06:41:13;1100.40;;;999.90;;
61527;SDS011;47395;42.032;-8.634;2023-02-28T06:45:15;1064.28;;;979.42;;
61527;SDS011;47395;42.032;-8.634;2023-02-28T06:49:16;1057.38;;;970.20;;
61527;SDS011;47395;42.032;-8.634;2023-02-28T06:51:19;1120.35;;;999.90;;
61527;SDS011;47395;42.032;-8.634;2023-02-28T06:53:22;1128.40;;;999.90;;
61527;SDS011;47395;42.032;-8.634;2023-02-28T06:57:23;1085.18;;;992.67;;
61527;SDS011;47395;42.032;-8.634;2023-02-28T06:59:25;1153.00;;;999.90;;
61527;SDS011;47395;42.032;-8.634;2023-02-28T07:03:28;1146.28;;;999.90;;
61527;SDS011;47395;42.032;-8.634;2023-02-28T07:07:30;1098.63;;;998.00;;
61527;SDS011;47395;42.032;-8.634;2023-02-28T07:11:31;1073.60;;;982.67;;
61527;SDS011;47395;42.032;-8.634;2023-02-28T07:15:33;1104.43;;;998.95;;
61527;SDS011;47395;42.032;-8.634;2023-02-28T07:19:34;1100.03;;;996.60;;
61527;SDS011;47395;42.032;-8.634;2023-02-28T07:23:36;1088.70;;;996.17;;
61527;SDS011;47395;42.032;-8.634;2023-02-28T07:25:41;1140.05;;;999.90;;
61527;SDS011;47395;42.032;-8.634;2023-02-28T07:27:42;1141.50;;;999.90;;
61527;SDS011;47395;42.032;-8.634;2023-02-28T07:31:43;1127.70;;;999.90;;
61527;SDS011;47395;42.032;-8.634;2023-02-28T07:35:45;1133.80;;;999.90;;
61527;SDS011;47395;42.032;-8.634;2023-02-28T07:37:45;1198.40;;;999.90;;
61527;SDS011;47395;42.032;-8.634;2023-02-28T07:39:47;1198.80;;;999.90;;
61527;SDS011;47395;42.032;-8.634;2023-02-28T07:43:48;1114.35;;;999.90;;
61527;SDS011;47395;42.032;-8.634;2023-02-28T07:47:50;1119.78;;;999.90;;
61527;SDS011;47395;42.032;-8.634;2023-02-28T07:51:51;1161.63;;;999.90;;
61527;SDS011;47395;42.032;-8.634;2023-02-28T07:55:56;1144.18;;;999.90;;
61527;SDS011;47395;42.032;-8.634;2023-02-28T07:57:58;1172.10;;;999.90;;
61527;SDS011;47395;42.032;-8.634;2023-02-28T08:01:59;1169.55;;;999.90;;
61527;SDS011;47395;42.032;-8.634;2023-02-28T08:06:02;1146.25;;;999.90;;
61527;SDS011;47395;42.032;-8.634;2023-02-28T08:08:04;1196.97;;;999.90;;
61527;SDS011;47395;42.032;-8.634;2023-02-28T08:14:07;1098.97;;;998.67;;
61527;SDS011;47395;42.032;-8.634;2023-02-28T08:16:08;1220.95;;;999.90;;
61527;SDS011;47395;42.032;-8.634;2023-02-28T08:18:09;1230.22;;;999.90;;
61527;SDS011;47395;42.032;-8.634;2023-02-28T08:20:10;1272.30;;;999.90;;
61527;SDS011;47395;42.032;-8.634;2023-02-28T08:22:12;1381.47;;;999.90;;
61527;SDS011;47395;42.032;-8.634;2023-02-28T08:24:13;1464.43;;;999.90;;
61527;SDS011;47395;42.032;-8.634;2023-02-28T08:26:14;1462.28;;;999.90;;
61527;SDS011;47395;42.032;-8.634;2023-02-28T08:28:15;1573.78;;;999.90;;
61527;SDS011;47395;42.032;-8.634;2023-02-28T08:30:16;1588.22;;;999.90;;
61527;SDS011;47395;42.032;-8.634;2023-02-28T08:32:17;1759.00;;;999.90;;
61527;SDS011;47395;42.032;-8.634;2023-02-28T08:34:19;1787.90;;;999.90;;
61527;SDS011;47395;42.032;-8.634;2023-02-28T08:36:20;1898.07;;;999.90;;
61527;SDS011;47395;42.032;-8.634;2023-02-28T08:38:20;1862.43;;;999.90;;
61527;SDS011;47395;42.032;-8.634;2023-02-28T08:40:22;1841.70;;;999.90;;
61527;SDS011;47395;42.032;-8.634;2023-02-28T08:42:23;1992.30;;;999.90;;
61527;SDS011;47395;42.032;-8.634;2023-02-28T08:44:24;1905.85;;;999.90;;
61527;SDS011;47395;42.032;-8.634;2023-02-28T08:46:25;1991.45;;;999.90;;
61527;SDS011;47395;42.032;-8.634;2023-02-28T08:48:27;1893.15;;;999.90;;
61527;SDS011;47395;42.032;-8.634;2023-02-28T08:50:29;1997.47;;;999.90;;
61527;SDS011;47395;42.032;-8.634;2023-02-28T08:52:30;1986.70;;;999.90;;
61527;SDS011;47395;42.032;-8.634;2023-02-28T08:54:30;1999.90;;;999.90;;
61527;SDS011;47395;42.032;-8.634;2023-02-28T08:56:33;1999.90;;;999.90;;
61527;SDS011;47395;42.032;-8.634;2023-02-28T08:58:34;1987.80;;;999.90;;
61527;SDS011;47395;42.032;-8.634;2023-02-28T09:00:35;1996.10;;;999.90;;
61527;SDS011;47395;42.032;-8.634;2023-02-28T09:02:36;1999.57;;;999.90;;
61527;SDS011;47395;42.032;-8.634;2023-02-28T09:04:38;1987.18;;;999.90;;
61527;SDS011;47395;42.032;-8.634;2023-02-28T09:06:39;1999.90;;;999.90;;
61527;SDS011;47395;42.032;-8.634;2023-02-28T09:08:41;1999.90;;;999.90;;
61527;SDS011;47395;42.032;-8.634;2023-02-28T09:10:42;1999.90;;;999.90;;
61527;SDS011;47395;42.032;-8.634;2023-02-28T09:12:43;1999.90;;;999.90;;
61527;SDS011;47395;42.032;-8.634;2023-02-28T09:14:46;1999.90;;;999.90;;
61527;SDS011;47395;42.032;-8.634;2023-02-28T09:16:47;1999.90;;;999.90;;
61527;SDS011;47395;42.032;-8.634;2023-02-28T09:18:48;1999.90;;;999.90;;
61527;SDS011;47395;42.032;-8.634;2023-02-28T09:20:49;1999.90;;;999.90;;
61527;SDS011;47395;42.032;-8.634;2023-02-28T09:22:50;1999.90;;;999.90;;
61527;SDS011;47395;42.032;-8.634;2023-02-28T09:24:51;1999.90;;;999.90;;
61527;SDS011;47395;42.032;-8.634;2023-02-28T09:26:52;1999.90;;;999.90;;
61527;SDS011;47395;42.032;-8.634;2023-02-28T09:28:53;1999.90;;;999.90;;
61527;SDS011;47395;42.032;-8.634;2023-02-28T09:30:55;1999.90;;;999.90;;
61527;SDS011;47395;42.032;-8.634;2023-02-28T09:32:57;1999.90;;;999.90;;
61527;SDS011;47395;42.032;-8.634;2023-02-28T09:34:59;1999.90;;;999.90;;
61527;SDS011;47395;42.032;-8.634;2023-02-28T09:37:00;1999.90;;;999.90;;
61527;SDS011;47395;42.032;-8.634;2023-02-28T09:39:01;1999.90;;;999.90;;
61527;SDS011;47395;42.032;-8.634;2023-02-28T09:41:03;1999.90;;;999.90;;
61527;SDS011;47395;42.032;-8.634;2023-02-28T09:43:20;1999.90;;;999.90;;
61527;SDS011;47395;42.032;-8.634;2023-02-28T09:47:34;1999.90;;;999.90;;
61527;SDS011;47395;42.032;-8.634;2023-02-28T09:49:42;1999.90;;;999.90;;
61527;SDS011;47395;42.032;-8.634;2023-02-28T09:51:58;1999.90;;;999.90;;
61527;SDS011;47395;42.032;-8.634;2023-02-28T09:54:05;1999.90;;;999.90;;
61527;SDS011;47395;42.032;-8.634;2023-02-28T09:56:11;1999.90;;;999.90;;
61527;SDS011;47395;42.032;-8.634;2023-02-28T09:58:35;1999.90;;;999.90;;
61527;SDS011;47395;42.032;-8.634;2023-02-28T10:00:59;1999.90;;;999.90;;
61527;SDS011;47395;42.032;-8.634;2023-02-28T10:03:45;1999.90;;;999.90;;
61527;SDS011;47395;42.032;-8.634;2023-02-28T10:06:18;1999.90;;;999.90;;
61527;SDS011;47395;42.032;-8.634;2023-02-28T10:08:23;1999.90;;;999.90;;
61527;SDS011;47395;42.032;-8.634;2023-02-28T10:10:35;1999.90;;;999.90;;
61527;SDS011;47395;42.032;-8.634;2023-02-28T10:12:38;1999.90;;;999.90;;
61527;SDS011;47395;42.032;-8.634;2023-02-28T10:14:45;1999.90;;;999.90;;
61527;SDS011;47395;42.032;-8.634;2023-02-28T10:17:11;1999.90;;;999.90;;
61527;SDS011;47395;42.032;-8.634;2023-02-28T10:19:18;1999.90;;;999.90;;
61527;SDS011;47395;42.032;-8.634;2023-02-28T10:21:28;1999.90;;;999.90;;
61527;SDS011;47395;42.032;-8.634;2023-02-28T10:23:34;1999.90;;;999.90;;
61527;SDS011;47395;42.032;-8.634;2023-02-28T10:25:37;1999.90;;;999.90;;
61527;SDS011;47395;42.032;-8.634;2023-02-28T10:27:39;1999.90;;;999.90;;
61527;SDS011;47395;42.032;-8.634;2023-02-28T10:29:40;1999.90;;;999.90;;
61527;SDS011;47395;42.032;-8.634;2023-02-28T10:31:45;1999.90;;;999.90;;
61527;SDS011;47395;42.032;-8.634;2023-02-28T10:33:47;1999.90;;;999.90;;
61527;SDS011;47395;42.032;-8.634;2023-02-28T10:35:48;1999.90;;;999.90;;
61527;SDS011;47395;42.032;-8.634;2023-02-28T10:37:50;1999.90;;;999.90;;
61527;SDS011;47395;42.032;-8.634;2023-02-28T10:39:56;1999.90;;;999.90;;
61527;SDS011;47395;42.032;-8.634;2023-02-28T10:41:58;1999.90;;;999.90;;
61527;SDS011;47395;42.032;-8.634;2023-02-28T10:44:20;1999.90;;;999.90;;
61527;SDS011;47395;42.032;-8.634;2023-02-28T10:46:22;1999.90;;;999.90;;
61527;SDS011;47395;42.032;-8.634;2023-02-28T10:48:27;1999.90;;;999.90;;
61527;SDS011;47395;42.032;-8.634;2023-02-28T10:50:35;1999.90;;;999.90;;
61527;SDS011;47395;42.032;-8.634;2023-02-28T10:52:45;1999.90;;;999.90;;
61527;SDS011;47395;42.032;-8.634;2023-02-28T10:54:46;1999.90;;;999.90;;
61527;SDS011;47395;42.032;-8.634;2023-02-28T10:57:05;1999.90;;;999.90;;
61527;SDS011;47395;42.032;-8.634;2023-02-28T11:01:34;1999.90;;;999.90;;
61527;SDS011;47395;42.032;-8.634;2023-02-28T11:03:46;1999.90;;;999.90;;
61527;SDS011;47395;42.032;-8.634;2023-02-28T11:05:47;1999.90;;;999.90;;
61527;SDS011;47395;42.032;-8.634;2023-02-28T11:07:52;1999.90;;;999.90;;
61527;SDS011;47395;42.032;-8.634;2023-02-28T11:09:57;1999.90;;;999.90;;
61527;SDS011;47395;42.032;-8.634;2023-02-28T11:11:59;1999.90;;;999.90;;
61527;SDS011;47395;42.032;-8.634;2023-02-28T11:14:04;1999.90;;;999.90;;
61527;SDS011;47395;42.032;-8.634;2023-02-28T11:16:10;1999.90;;;999.90;;
61527;SDS011;47395;42.032;-8.634;2023-02-28T11:18:23;1999.90;;;999.90;;
61527;SDS011;47395;42.032;-8.634;2023-02-28T11:20:29;1999.90;;;999.90;;
61527;SDS011;47395;42.032;-8.634;2023-02-28T11:22:35;1999.90;;;999.90;;
61527;SDS011;47395;42.032;-8.634;2023-02-28T11:24:43;1913.32;;;999.90;;
61527;SDS011;47395;42.032;-8.634;2023-02-28T11:26:47;1999.90;;;999.90;;
61527;SDS011;47395;42.032;-8.634;2023-02-28T11:28:49;1999.90;;;999.90;;
61527;SDS011;47395;42.032;-8.634;2023-02-28T11:31:16;1999.90;;;999.90;;
61527;SDS011;47395;42.032;-8.634;2023-02-28T11:33:29;1999.90;;;999.90;;
61527;SDS011;47395;42.032;-8.634;2023-02-28T11:35:37;1999.90;;;999.90;;
61527;SDS011;47395;42.032;-8.634;2023-02-28T11:37:39;1999.90;;;999.90;;
61527;SDS011;47395;42.032;-8.634;2023-02-28T11:39:42;1999.90;;;999.90;;
61527;SDS011;47395;42.032;-8.634;2023-02-28T11:41:56;1999.90;;;999.90;;
61527;SDS011;47395;42.032;-8.634;2023-02-28T11:46:44;1999.90;;;999.90;;
61527;SDS011;47395;42.032;-8.634;2023-02-28T11:51:57;1999.90;;;999.90;;
61527;SDS011;47395;42.032;-8.634;2023-02-28T11:56:58;1999.90;;;999.90;;
61527;SDS011;47395;42.032;-8.634;2023-02-28T12:04:26;1999.90;;;999.90;;
61527;SDS011;47395;42.032;-8.634;2023-02-28T12:06:57;1999.90;;;999.90;;
61527;SDS011;47395;42.032;-8.634;2023-02-28T12:11:30;1999.90;;;999.90;;
61527;SDS011;47395;42.032;-8.634;2023-02-28T12:16:53;1999.90;;;999.90;;
61527;SDS011;47395;42.032;-8.634;2023-02-28T12:21:44;1999.90;;;999.90;;
61527;SDS011;47395;42.032;-8.634;2023-02-28T12:26:40;1999.90;;;999.90;;
61527;SDS011;47395;42.032;-8.634;2023-02-28T12:28:44;1999.90;;;999.90;;
61527;SDS011;47395;42.032;-8.634;2023-02-28T12:30:59;1999.90;;;999.90;;
61527;SDS011;47395;42.032;-8.634;2023-02-28T12:33:11;1999.90;;;999.90;;
61527;SDS011;47395;42.032;-8.634;2023-02-28T12:35:16;1999.90;;;999.90;;
61527;SDS011;47395;42.032;-8.634;2023-02-28T12:37:25;1999.90;;;999.90;;
61527;SDS011;47395;42.032;-8.634;2023-02-28T12:39:36;1999.90;;;999.90;;
61527;SDS011;47395;42.032;-8.634;2023-02-28T12:41:46;1999.90;;;999.90;;
61527;SDS011;47395;42.032;-8.634;2023-02-28T12:44:02;1999.90;;;999.90;;
61527;SDS011;47395;42.032;-8.634;2023-02-28T12:48:20;1999.90;;;999.90;;
61527;SDS011;47395;42.032;-8.634;2023-02-28T12:50:36;1999.90;;;999.90;;
61527;SDS011;47395;42.032;-8.634;2023-02-28T12:52:43;1999.90;;;999.90;;
61527;SDS011;47395;42.032;-8.634;2023-02-28T12:55:13;1999.90;;;999.90;;
61527;SDS011;47395;42.032;-8.634;2023-02-28T12:57:28;1999.90;;;999.90;;
61527;SDS011;47395;42.032;-8.634;2023-02-28T12:59:48;1999.90;;;999.90;;
61527;SDS011;47395;42.032;-8.634;2023-02-28T13:02:09;1999.90;;;999.90;;
61527;SDS011;47395;42.032;-8.634;2023-02-28T13:04:40;1999.90;;;999.90;;
61527;SDS011;47395;42.032;-8.634;2023-02-28T13:10:03;1999.90;;;999.90;;
61527;SDS011;47395;42.032;-8.634;2023-02-28T13:12:14;1958.60;;;999.90;;
61527;SDS011;47395;42.032;-8.634;2023-02-28T13:14:20;1999.90;;;999.90;;
61527;SDS011;47395;42.032;-8.634;2023-02-28T13:16:24;1999.90;;;999.90;;
61527;SDS011;47395;42.032;-8.634;2023-02-28T13:18:30;1999.90;;;999.90;;
61527;SDS011;47395;42.032;-8.634;2023-02-28T13:20:34;1999.90;;;999.90;;
61527;SDS011;47395;42.032;-8.634;2023-02-28T13:22:41;1999.90;;;999.90;;
61527;SDS011;47395;42.032;-8.634;2023-02-28T13:24:51;1999.90;;;999.90;;
61527;SDS011;47395;42.032;-8.634;2023-02-28T13:29:43;1999.90;;;999.90;;
61527;SDS011;47395;42.032;-8.634;2023-02-28T13:34:13;1920.07;;;999.90;;
61527;SDS011;47395;42.032;-8.634;2023-02-28T13:38:34;1999.90;;;999.90;;
61527;SDS011;47395;42.032;-8.634;2023-02-28T13:40:37;1999.90;;;999.90;;
61527;SDS011;47395;42.032;-8.634;2023-02-28T13:47:29;1999.90;;;999.90;;
61527;SDS011;47395;42.032;-8.634;2023-02-28T13:49:43;1999.90;;;999.90;;
61527;SDS011;47395;42.032;-8.634;2023-02-28T13:51:45;1999.90;;;999.90;;
61527;SDS011;47395;42.032;-8.634;2023-02-28T13:53:53;1999.90;;;999.90;;
61527;SDS011;47395;42.032;-8.634;2023-02-28T13:56:23;1999.90;;;999.90;;
61527;SDS011;47395;42.032;-8.634;2023-02-28T14:01:34;1999.90;;;999.90;;
61527;SDS011;47395;42.032;-8.634;2023-02-28T14:06:33;1999.90;;;999.90;;
61527;SDS011;47395;42.032;-8.634;2023-02-28T14:08:42;1999.90;;;999.90;;
61527;SDS011;47395;42.032;-8.634;2023-02-28T14:10:53;1999.90;;;999.90;;
61527;SDS011;47395;42.032;-8.634;2023-02-28T14:15:54;1999.90;;;999.90;;
61527;SDS011;47395;42.032;-8.634;2023-02-28T14:18:00;1999.90;;;999.90;;
61527;SDS011;47395;42.032;-8.634;2023-02-28T14:20:03;1999.90;;;999.90;;
61527;SDS011;47395;42.032;-8.634;2023-02-28T14:27:17;1999.90;;;999.90;;
61527;SDS011;47395;42.032;-8.634;2023-02-28T14:29:31;1999.90;;;999.90;;
61527;SDS011;47395;42.032;-8.634;2023-02-28T14:32:13;1999.90;;;999.90;;
61527;SDS011;47395;42.032;-8.634;2023-02-28T14:37:36;1999.90;;;999.90;;
61527;SDS011;47395;42.032;-8.634;2023-02-28T14:39:40;1874.38;;;999.90;;
61527;SDS011;47395;42.032;-8.634;2023-02-28T14:41:44;1999.90;;;999.90;;
61527;SDS011;47395;42.032;-8.634;2023-02-28T14:43:55;1999.90;;;999.90;;
61527;SDS011;47395;42.032;-8.634;2023-02-28T14:46:01;1999.90;;;999.90;;
61527;SDS011;47395;42.032;-8.634;2023-02-28T14:48:05;1999.90;;;999.90;;
61527;SDS011;47395;42.032;-8.634;2023-02-28T14:50:18;1999.90;;;999.90;;
61527;SDS011;47395;42.032;-8.634;2023-02-28T14:52:23;1999.90;;;999.90;;
61527;SDS011;47395;42.032;-8.634;2023-02-28T14:54:27;1999.90;;;999.90;;
61527;SDS011;47395;42.032;-8.634;2023-02-28T14:56:35;1999.90;;;999.90;;
61527;SDS011;47395;42.032;-8.634;2023-02-28T14:58:50;1999.90;;;999.90;;
61527;SDS011;47395;42.032;-8.634;2023-02-28T15:00:53;1999.90;;;999.90;;
61527;SDS011;47395;42.032;-8.634;2023-02-28T15:02:59;1999.90;;;999.90;;
61527;SDS011;47395;42.032;-8.634;2023-02-28T15:07:28;1999.90;;;999.90;;
61527;SDS011;47395;42.032;-8.634;2023-02-28T15:09:29;1999.90;;;999.90;;